createdAt,value
2023-01-19T00:00:00.109Z,75.59
2023-01-19T00:02:26.599Z,75.14
2023-01-19T00:04:53.022Z,74.81
2023-01-19T00:07:19.434Z,74.55
2023-01-19T00:09:45.829Z,74.53
2023-01-19T00:12:12.280Z,74.17
2023-01-19T00:14:38.642Z,74.34
2023-01-19T00:17:05.157Z,73.89
2023-01-19T00:19:31.532Z,73.78
2023-01-19T00:21:57.947Z,73.74
2023-01-19T00:24:24.369Z,73.24
2023-01-19T00:26:50.816Z,73.58
2023-01-19T00:29:17.249Z,73.12
2023-01-19T00:31:44.472Z,73.14
2023-01-19T00:34:11.014Z,73.10
2023-01-19T00:36:37.441Z,72.87
2023-01-19T00:39:03.926Z,73.13
2023-01-19T00:41:48.663Z,72.80
2023-01-19T00:44:15.220Z,72.80
2023-01-19T00:46:41.666Z,72.90
2023-01-19T00:49:08.096Z,72.69
2023-01-19T00:51:34.528Z,72.59
2023-01-19T00:54:04.769Z,72.71
2023-01-19T00:56:34.066Z,72.75
2023-01-19T00:59:00.589Z,72.17
2023-01-19T01:01:46.035Z,72.33
2023-01-19T01:04:13.529Z,72.02
2023-01-19T01:06:40.492Z,72.21
2023-01-19T01:09:11.900Z,72.35
2023-01-19T01:11:42.578Z,71.98
2023-01-19T01:14:11.140Z,72.19
2023-01-19T01:16:37.640Z,71.89
2023-01-19T01:19:04.086Z,72.16
2023-01-19T01:21:30.640Z,71.98
2023-01-19T01:23:57.288Z,71.77
2023-01-19T01:26:24.380Z,71.81
2023-01-19T01:28:51.856Z,72.00
2023-01-19T01:31:18.260Z,71.75
2023-01-19T01:33:44.667Z,71.76
2023-01-19T01:36:12.206Z,71.66
2023-01-19T01:38:40.580Z,71.98
2023-01-19T01:41:08.013Z,71.87
2023-01-19T01:43:47.399Z,72.08
2023-01-19T01:46:16.142Z,71.67
2023-01-19T01:48:57.289Z,72.35
2023-01-19T01:51:33.831Z,72.19
2023-01-19T01:54:09.241Z,71.93
2023-01-19T01:56:45.076Z,72.00
2023-01-19T01:59:28.049Z,71.82
2023-01-19T02:02:16.114Z,71.99
2023-01-19T02:04:56.121Z,71.93
2023-01-19T02:07:50.132Z,72.16
2023-01-19T02:10:34.948Z,71.66
2023-01-19T02:13:19.492Z,71.64
2023-01-19T02:15:47.583Z,71.68
2023-01-19T02:18:14.238Z,71.77
2023-01-19T02:20:45.052Z,71.60
2023-01-19T02:23:22.033Z,71.98
2023-01-19T02:25:49.203Z,72.07
2023-01-19T02:28:15.793Z,72.07
2023-01-19T02:30:43.296Z,71.88
2023-01-19T02:33:09.993Z,71.78
2023-01-19T02:35:39.539Z,71.99
2023-01-19T02:38:07.734Z,72.05
2023-01-19T02:40:35.954Z,71.88
2023-01-19T02:43:04.456Z,71.90
2023-01-19T02:45:32.067Z,71.58
2023-01-19T02:47:58.505Z,71.69
2023-01-19T02:50:50.507Z,72.31
2023-01-19T02:53:53.434Z,72.10
2023-01-19T02:56:53.203Z,72.42
2023-01-19T02:59:51.191Z,72.48
2023-01-19T03:02:33.327Z,72.52
2023-01-19T03:05:21.862Z,72.86
2023-01-19T03:08:08.347Z,72.84
2023-01-19T03:10:46.897Z,73.19
2023-01-19T03:13:21.501Z,73.21
2023-01-19T03:15:59.251Z,72.59
2023-01-19T03:18:28.866Z,72.87
2023-01-19T03:20:58.873Z,73.02
2023-01-19T03:23:29.820Z,73.10
2023-01-19T03:25:59.073Z,72.88
2023-01-19T03:28:28.354Z,72.66
2023-01-19T03:31:10.120Z,73.39
2023-01-19T03:33:39.322Z,72.72
2023-01-19T03:36:14.722Z,73.48
2023-01-19T03:38:43.299Z,73.38
2023-01-19T03:41:13.852Z,73.00
2023-01-19T03:43:41.426Z,73.00
2023-01-19T03:46:10.880Z,72.94
2023-01-19T03:48:38.415Z,73.17
2023-01-19T03:51:07.980Z,73.50
2023-01-19T03:53:34.760Z,73.35
2023-01-19T03:56:01.447Z,73.84
2023-01-19T03:58:28.255Z,73.74
2023-01-19T04:00:54.822Z,74.07
2023-01-19T04:03:21.294Z,74.20
2023-01-19T04:05:47.809Z,74.07
2023-01-19T04:08:14.249Z,74.37
2023-01-19T04:10:40.883Z,74.34
2023-01-19T04:13:07.302Z,74.28
2023-01-19T04:15:33.754Z,74.37
2023-01-19T04:18:01.129Z,74.42
2023-01-19T04:20:28.321Z,74.28
2023-01-19T04:22:58.757Z,74.50
2023-01-19T04:25:25.381Z,74.90
2023-01-19T04:27:53.060Z,74.93
2023-01-19T04:30:19.873Z,74.97
2023-01-19T04:32:46.585Z,74.92
2023-01-19T04:35:12.984Z,75.23
2023-01-19T04:37:40.123Z,75.17
2023-01-19T04:40:07.388Z,75.19
2023-01-19T04:42:33.824Z,74.78
2023-01-19T04:45:00.219Z,74.87
2023-01-19T04:47:26.610Z,74.85
2023-01-19T04:49:53.043Z,75.00
2023-01-19T04:52:19.508Z,74.61
2023-01-19T04:54:45.985Z,75.17
2023-01-19T04:57:12.515Z,75.07
2023-01-19T04:59:38.963Z,75.26
2023-01-19T05:02:05.426Z,75.21
2023-01-19T05:04:32.045Z,75.58
2023-01-19T05:06:58.625Z,75.70
2023-01-19T05:09:26.026Z,75.48
2023-01-19T05:11:52.404Z,75.64
2023-01-19T05:14:18.878Z,75.46
2023-01-19T05:16:45.298Z,75.70
2023-01-19T05:19:12.044Z,76.01
2023-01-19T05:21:38.642Z,75.88
2023-01-19T05:24:05.416Z,75.77
2023-01-19T05:26:32.088Z,75.91
2023-01-19T05:28:58.489Z,76.31
2023-01-19T05:31:25.146Z,76.65
2023-01-19T05:33:51.658Z,76.53
2023-01-19T05:36:18.283Z,76.75
2023-01-19T05:38:44.748Z,76.77
2023-01-19T05:41:11.152Z,76.73
2023-01-19T05:43:37.625Z,76.86
2023-01-19T05:46:05.356Z,77.31
2023-01-19T05:48:32.081Z,76.87
2023-01-19T05:50:59.950Z,76.95
2023-01-19T05:53:27.417Z,76.93
2023-01-19T05:55:58.643Z,77.07
2023-01-19T05:58:25.121Z,76.97
2023-01-19T06:00:51.645Z,77.42
2023-01-19T06:03:18.366Z,77.59
2023-01-19T06:05:44.782Z,77.83
2023-01-19T06:08:11.271Z,78.23
2023-01-19T06:10:37.702Z,78.66
2023-01-19T06:13:04.185Z,79.10
2023-01-19T06:15:30.583Z,79.37
2023-01-19T06:17:56.991Z,79.79
2023-01-19T06:20:23.465Z,80.06
2023-01-19T06:22:49.941Z,80.29
2023-01-19T06:25:16.431Z,81.22
2023-01-19T06:27:46.269Z,81.78
2023-01-19T06:30:13.703Z,81.57
2023-01-19T06:32:40.358Z,81.58
2023-01-19T06:35:07.868Z,81.76
2023-01-19T06:37:34.330Z,81.94
2023-01-19T06:40:00.779Z,82.28
2023-01-19T06:42:27.337Z,81.67
2023-01-19T06:44:53.736Z,81.94
2023-01-19T06:47:20.249Z,81.95
2023-01-19T06:49:46.720Z,81.93
2023-01-19T06:52:17.464Z,81.97
2023-01-19T06:54:47.279Z,81.97
2023-01-19T06:57:14.461Z,81.95
2023-01-19T06:59:41.034Z,81.91
2023-01-19T07:02:26.113Z,82.16
2023-01-19T07:04:53.995Z,82.10
2023-01-19T07:07:20.402Z,82.38
2023-01-19T07:09:46.776Z,82.67
2023-01-19T07:12:14.523Z,82.87
2023-01-19T07:14:40.976Z,83.39
2023-01-19T07:17:07.721Z,83.25
2023-01-19T07:19:35.297Z,83.03
2023-01-19T07:22:03.130Z,83.30
2023-01-19T07:24:33.628Z,83.15
2023-01-19T07:27:00.048Z,83.30
2023-01-19T07:29:26.919Z,83.26
2023-01-19T07:31:54.742Z,83.60
2023-01-19T07:34:21.423Z,83.74
2023-01-19T07:36:48.347Z,83.87
2023-01-19T07:39:14.865Z,83.74
2023-01-19T07:41:41.407Z,83.86
2023-01-19T07:44:09.484Z,83.84
2023-01-19T07:46:36.023Z,83.78
2023-01-19T07:49:02.419Z,83.55
2023-01-19T07:51:28.821Z,83.35
2023-01-19T07:53:55.270Z,83.45
2023-01-19T07:56:22.368Z,83.21
2023-01-19T07:58:50.338Z,83.09
2023-01-19T08:01:16.872Z,83.42
2023-01-19T08:03:43.568Z,83.24
2023-01-19T08:06:21.808Z,83.64
2023-01-19T08:08:48.849Z,83.40
2023-01-19T08:11:15.410Z,83.09
2023-01-19T08:13:43.258Z,82.88
2023-01-19T08:16:10.399Z,82.72
2023-01-19T08:18:36.938Z,82.63
2023-01-19T08:21:03.547Z,82.54
2023-01-19T08:23:30.056Z,82.37
2023-01-19T08:25:56.450Z,82.05
2023-01-19T08:28:23.039Z,81.95
2023-01-19T08:30:54.508Z,82.09
2023-01-19T08:33:24.160Z,82.20
2023-01-19T08:35:53.136Z,82.00
2023-01-19T08:38:20.015Z,81.68
2023-01-19T08:40:46.605Z,81.42
2023-01-19T08:43:15.504Z,81.41
2023-01-19T08:45:48.666Z,81.24
2023-01-19T08:48:17.345Z,80.70
2023-01-19T08:50:46.571Z,80.36
2023-01-19T08:53:13.054Z,80.05
2023-01-19T08:55:39.669Z,79.79
2023-01-19T08:58:08.620Z,79.53
2023-01-19T09:00:37.935Z,79.40
2023-01-19T09:03:06.438Z,79.07
2023-01-19T09:05:38.674Z,79.10
2023-01-19T09:08:08.190Z,79.21
2023-01-19T09:10:37.953Z,79.47
2023-01-19T09:13:10.902Z,79.56
2023-01-19T09:15:39.106Z,79.70
2023-01-19T09:18:13.525Z,79.91
2023-01-19T09:20:42.551Z,80.16
2023-01-19T09:23:12.775Z,80.31
2023-01-19T09:25:39.630Z,80.45
2023-01-19T09:28:09.195Z,80.99
2023-01-19T09:30:37.404Z,80.93
2023-01-19T09:33:10.980Z,81.00
2023-01-19T09:35:39.241Z,81.25
2023-01-19T09:38:07.563Z,81.08
2023-01-19T09:40:36.305Z,81.04
2023-01-19T09:43:13.936Z,81.07
2023-01-19T09:46:03.833Z,81.20
2023-01-19T09:48:52.166Z,81.27
2023-01-19T09:51:24.300Z,81.05
2023-01-19T09:53:56.819Z,80.65
2023-01-19T09:56:24.554Z,80.35
2023-01-19T09:58:51.596Z,80.24
2023-01-19T10:01:35.675Z,80.07
2023-01-19T10:04:26.545Z,80.20
2023-01-19T10:07:03.865Z,79.67
2023-01-19T10:09:35.981Z,79.55
2023-01-19T10:12:14.072Z,79.16
2023-01-19T10:14:48.591Z,79.12
2023-01-19T10:17:35.039Z,78.99
2023-01-19T10:20:03.295Z,78.90
2023-01-19T10:22:29.681Z,78.14
2023-01-19T10:24:59.898Z,77.73
2023-01-19T10:27:31.257Z,77.87
2023-01-19T10:29:58.975Z,77.47
2023-01-19T10:32:30.333Z,77.29
2023-01-19T10:34:59.514Z,76.87
2023-01-19T10:37:37.683Z,76.69
2023-01-19T10:40:10.209Z,76.45
2023-01-19T10:42:39.470Z,76.12
2023-01-19T10:45:21.085Z,76.56
2023-01-19T10:47:48.673Z,76.27
2023-01-19T10:50:28.430Z,76.11
2023-01-19T10:52:57.829Z,76.43
2023-01-19T10:55:26.222Z,76.41
2023-01-19T10:57:53.609Z,76.58
2023-01-19T11:00:31.551Z,77.20
2023-01-19T11:02:58.156Z,76.87
2023-01-19T11:05:29.997Z,77.16
2023-01-19T11:07:56.652Z,77.08
2023-01-19T11:10:28.590Z,77.25
2023-01-19T11:13:15.782Z,77.99
2023-01-19T11:15:54.391Z,77.30
2023-01-19T11:18:32.294Z,77.85
2023-01-19T11:21:02.300Z,77.47
2023-01-19T11:23:34.910Z,77.49
2023-01-19T11:26:05.293Z,77.25
2023-01-19T11:28:35.415Z,77.48
2023-01-19T11:31:16.630Z,77.51
2023-01-19T11:33:55.070Z,77.96
2023-01-19T11:36:24.551Z,77.35
2023-01-19T11:38:53.719Z,77.97
2023-01-19T11:41:30.447Z,78.82
2023-01-19T11:44:00.316Z,78.51
2023-01-19T11:46:32.853Z,78.94
2023-01-19T11:49:04.684Z,79.61
2023-01-19T11:51:39.558Z,79.36
2023-01-19T11:54:23.580Z,79.87
2023-01-19T11:56:52.081Z,79.78
2023-01-19T11:59:19.497Z,80.11
2023-01-19T12:01:54.644Z,80.67
2023-01-19T12:04:35.209Z,81.02
2023-01-19T12:07:08.798Z,80.62
2023-01-19T12:09:47.454Z,81.35
2023-01-19T12:12:26.855Z,81.12
2023-01-19T12:15:08.689Z,80.55
2023-01-19T12:17:40.128Z,80.09
2023-01-19T12:20:33.585Z,80.63
2023-01-19T12:23:18.219Z,80.90
2023-01-19T12:26:19.982Z,80.46
2023-01-19T12:28:48.305Z,79.88
2023-01-19T12:31:17.793Z,80.29
2023-01-19T12:33:44.755Z,79.98
2023-01-19T12:36:26.386Z,80.13
2023-01-19T12:38:56.723Z,79.95
2023-01-19T12:41:25.715Z,80.05
2023-01-19T12:44:10.800Z,80.45
2023-01-19T12:46:38.517Z,80.13
2023-01-19T12:49:04.836Z,79.89
2023-01-19T12:51:32.377Z,79.72
2023-01-19T12:54:02.215Z,79.48
2023-01-19T12:56:31.429Z,79.67
2023-01-19T12:58:58.672Z,79.80
2023-01-19T13:01:26.946Z,80.27
2023-01-19T13:04:32.222Z,81.12
2023-01-19T13:07:00.181Z,80.75
2023-01-19T13:09:35.389Z,81.74
2023-01-19T13:12:14.873Z,82.04
2023-01-19T13:14:43.155Z,81.31
2023-01-19T13:17:39.235Z,81.93
2023-01-19T13:20:27.590Z,82.18
2023-01-19T13:23:23.412Z,82.17
2023-01-19T13:25:53.466Z,81.83
2023-01-19T13:28:28.967Z,81.81
2023-01-19T13:30:59.265Z,81.43
2023-01-19T13:33:30.005Z,81.47
2023-01-19T13:35:58.742Z,81.25
2023-01-19T13:38:27.803Z,81.39
2023-01-19T13:40:56.481Z,81.44
2023-01-19T13:43:30.870Z,81.83
2023-01-19T13:45:58.119Z,81.40
2023-01-19T13:48:25.619Z,81.52
2023-01-19T13:51:01.258Z,82.34
2023-01-19T13:53:27.843Z,81.39
2023-01-19T13:56:22.007Z,81.96
2023-01-19T13:58:58.389Z,82.04
2023-01-19T14:01:28.732Z,81.11
2023-01-19T14:03:55.932Z,80.97
2023-01-19T14:06:43.347Z,81.11
2023-01-19T14:09:20.111Z,81.34
2023-01-19T14:12:05.153Z,81.14
2023-01-19T14:14:32.207Z,81.01
2023-01-19T14:16:59.482Z,80.48
2023-01-19T14:19:26.021Z,79.87
2023-01-19T14:22:03.974Z,80.48
2023-01-19T14:24:33.065Z,79.15
2023-01-19T14:27:24.147Z,80.04
2023-01-19T14:29:53.693Z,79.08
2023-01-19T14:32:25.180Z,79.38
2023-01-19T14:35:04.076Z,80.14
2023-01-19T14:37:36.521Z,79.91
2023-01-19T14:40:10.752Z,80.13
2023-01-19T14:42:42.950Z,80.63
2023-01-19T14:45:23.680Z,81.08
2023-01-19T14:47:59.924Z,80.59
2023-01-19T14:50:35.179Z,80.74
2023-01-19T14:53:07.293Z,80.38
2023-01-19T14:55:35.986Z,79.82
2023-01-19T14:58:02.537Z,79.54
2023-01-19T15:00:29.261Z,79.43
2023-01-19T15:02:55.708Z,79.62
2023-01-19T15:05:23.060Z,79.25
2023-01-19T15:07:49.546Z,79.17
2023-01-19T15:10:22.691Z,79.50
2023-01-19T15:12:51.372Z,79.71
2023-01-19T15:15:22.754Z,80.03
2023-01-19T15:17:50.213Z,80.65
2023-01-19T15:20:19.351Z,81.20
2023-01-19T15:22:46.407Z,81.46
2023-01-19T15:25:15.121Z,81.29
2023-01-19T15:27:42.065Z,81.94
2023-01-19T15:30:24.493Z,82.95
2023-01-19T15:32:51.046Z,82.46
2023-01-19T15:35:21.034Z,83.13
2023-01-19T15:37:48.938Z,83.08
2023-01-19T15:40:16.763Z,83.25
2023-01-19T15:42:43.774Z,83.18
2023-01-19T15:45:25.278Z,83.79
2023-01-19T15:47:51.694Z,83.67
2023-01-19T15:50:19.969Z,83.82
2023-01-19T15:52:46.389Z,83.85
2023-01-19T15:55:15.969Z,83.87
2023-01-19T15:57:42.805Z,83.91
2023-01-19T16:00:10.498Z,84.11
2023-01-19T16:02:37.956Z,84.01
2023-01-19T16:05:05.238Z,83.92
2023-01-19T16:07:36.266Z,84.06
2023-01-19T16:10:04.531Z,83.71
2023-01-19T16:12:31.395Z,84.15
2023-01-19T16:14:58.181Z,83.95
2023-01-19T16:17:24.674Z,83.66
2023-01-19T16:19:51.239Z,84.03
2023-01-19T16:22:17.809Z,83.82
2023-01-19T16:24:44.307Z,83.34
2023-01-19T16:27:10.909Z,83.33
2023-01-19T16:29:37.495Z,83.24
2023-01-19T16:32:04.298Z,83.34
2023-01-19T16:34:31.098Z,83.39
2023-01-19T16:36:57.643Z,83.31
2023-01-19T16:39:24.097Z,83.13
2023-01-19T16:41:50.477Z,83.28
2023-01-19T16:44:17.414Z,83.13
2023-01-19T16:46:45.922Z,83.41
2023-01-19T16:49:13.840Z,83.03
2023-01-19T16:51:41.016Z,82.78
2023-01-19T16:54:07.965Z,82.32
2023-01-19T16:56:34.376Z,81.92
2023-01-19T16:59:00.864Z,82.34
2023-01-19T17:01:29.211Z,82.30
2023-01-19T17:03:56.274Z,82.15
2023-01-19T17:06:23.310Z,82.11
2023-01-19T17:08:50.700Z,82.21
2023-01-19T17:11:20.825Z,82.37
2023-01-19T17:13:47.763Z,82.36
2023-01-19T17:16:14.242Z,82.58
2023-01-19T17:18:40.865Z,82.51
2023-01-19T17:21:09.345Z,82.37
2023-01-19T17:23:37.480Z,82.27
2023-01-19T17:26:05.207Z,82.01
2023-01-19T17:28:31.597Z,81.95
2023-01-19T17:31:07.365Z,81.83
2023-01-19T17:33:34.434Z,81.41
2023-01-19T17:36:10.304Z,82.05
2023-01-19T17:38:37.307Z,81.59
2023-01-19T17:41:17.704Z,82.33
2023-01-19T17:43:44.818Z,81.31
2023-01-19T17:46:11.744Z,81.25
2023-01-19T17:48:38.995Z,81.22
2023-01-19T17:51:07.723Z,81.28
2023-01-19T17:53:36.905Z,81.44
2023-01-19T17:56:17.372Z,81.35
2023-01-19T17:58:44.984Z,80.56
2023-01-19T18:01:14.688Z,80.48
2023-01-19T18:03:41.757Z,80.02
2023-01-19T18:06:08.720Z,79.92
2023-01-19T18:08:38.254Z,79.56
2023-01-19T18:11:07.699Z,79.06
2023-01-19T18:13:34.837Z,78.83
2023-01-19T18:16:08.291Z,79.07
2023-01-19T18:18:35.592Z,78.31
2023-01-19T18:21:07.603Z,78.15
2023-01-19T18:23:35.179Z,77.90
2023-01-19T18:26:06.420Z,77.53
2023-01-19T18:28:32.926Z,77.48
2023-01-19T18:31:00.046Z,77.46
2023-01-19T18:33:27.655Z,77.17
2023-01-19T18:35:54.422Z,77.25
2023-01-19T18:38:20.925Z,77.40
2023-01-19T18:40:47.314Z,77.50
2023-01-19T18:43:13.865Z,77.19
2023-01-19T18:45:41.967Z,77.22
2023-01-19T18:48:09.278Z,76.84
2023-01-19T18:50:37.785Z,76.92
2023-01-19T18:53:04.222Z,76.53
2023-01-19T18:55:30.740Z,76.74
2023-01-19T18:57:57.197Z,76.56
2023-01-19T19:00:23.595Z,76.58
2023-01-19T19:02:50.124Z,76.36
2023-01-19T19:05:16.514Z,76.70
2023-01-19T19:07:42.918Z,76.80
2023-01-19T19:10:09.855Z,76.40
2023-01-19T19:12:36.291Z,76.75
2023-01-19T19:15:02.843Z,76.81
2023-01-19T19:17:29.278Z,76.71
2023-01-19T19:19:55.735Z,76.72
2023-01-19T19:22:23.663Z,76.33
2023-01-19T19:24:51.772Z,76.29
2023-01-19T19:27:18.174Z,76.50
2023-01-19T19:29:48.055Z,76.50
2023-01-19T19:32:16.467Z,76.29
2023-01-19T19:34:42.948Z,76.50
2023-01-19T19:37:09.366Z,76.75
2023-01-19T19:39:38.209Z,76.96
2023-01-19T19:42:04.848Z,76.98
2023-01-19T19:44:31.244Z,76.76
2023-01-19T19:46:57.705Z,76.78
2023-01-19T19:49:24.264Z,77.25
2023-01-19T19:51:50.728Z,76.91
2023-01-19T19:54:17.347Z,77.32
2023-01-19T19:56:44.325Z,77.10
2023-01-19T19:59:10.690Z,76.58
2023-01-19T20:01:37.195Z,76.99
2023-01-19T20:04:06.743Z,76.83
2023-01-19T20:06:38.505Z,77.14
2023-01-19T20:09:07.083Z,76.99
2023-01-19T20:11:33.516Z,76.84
2023-01-19T20:13:59.952Z,76.90
2023-01-19T20:16:26.534Z,76.98
2023-01-19T20:18:56.296Z,77.00
2023-01-19T20:21:31.325Z,77.31
2023-01-19T20:24:01.623Z,77.21
2023-01-19T20:26:31.956Z,77.68
2023-01-19T20:29:02.323Z,77.73
2023-01-19T20:31:31.694Z,78.12
2023-01-19T20:34:00.903Z,78.01
2023-01-19T20:36:28.870Z,78.09
2023-01-19T20:38:55.872Z,78.08
2023-01-19T20:41:23.319Z,78.16
2023-01-19T20:43:50.578Z,78.57
2023-01-19T20:46:17.657Z,78.20
2023-01-19T20:48:45.699Z,78.27
2023-01-19T20:51:13.513Z,78.26
2023-01-19T20:53:41.587Z,78.53
2023-01-19T20:56:12.014Z,78.60
2023-01-19T20:58:38.755Z,78.22
2023-01-19T21:01:14.332Z,78.22
2023-01-19T21:03:40.999Z,77.53
2023-01-19T21:06:07.592Z,76.99
2023-01-19T21:08:34.188Z,77.15
2023-01-19T21:11:00.861Z,77.16
2023-01-19T21:13:27.338Z,76.90
2023-01-19T21:15:54.091Z,76.70
2023-01-19T21:18:20.590Z,76.92
2023-01-19T21:20:50.180Z,76.89
2023-01-19T21:23:17.628Z,76.60
2023-01-19T21:25:52.388Z,77.19
2023-01-19T21:28:19.885Z,76.31
2023-01-19T21:30:46.450Z,76.19
2023-01-19T21:33:13.124Z,76.03
2023-01-19T21:35:39.884Z,75.84
2023-01-19T21:38:06.549Z,75.95
2023-01-19T21:40:33.046Z,75.61
2023-01-19T21:42:59.427Z,75.93
2023-01-19T21:45:25.885Z,75.66
2023-01-19T21:47:52.336Z,75.83
2023-01-19T21:50:19.438Z,75.85
2023-01-19T21:52:46.012Z,76.19
2023-01-19T21:55:12.770Z,76.28
2023-01-19T21:57:39.384Z,76.58
2023-01-19T22:00:06.539Z,76.05
2023-01-19T22:02:38.631Z,76.11
2023-01-19T22:05:06.576Z,75.90
2023-01-19T22:07:33.218Z,76.01
2023-01-19T22:09:59.724Z,75.85
2023-01-19T22:12:26.146Z,76.29
2023-01-19T22:14:52.862Z,76.37
2023-01-19T22:17:19.377Z,76.26
2023-01-19T22:19:45.842Z,76.40
2023-01-19T22:22:12.283Z,77.05
2023-01-19T22:24:39.382Z,77.44
2023-01-19T22:27:05.792Z,77.38
2023-01-19T22:29:32.159Z,77.88
2023-01-19T22:31:58.538Z,77.63
2023-01-19T22:34:25.093Z,78.04
2023-01-19T22:36:51.483Z,78.52
2023-01-19T22:39:17.865Z,78.67
2023-01-19T22:41:46.189Z,78.86
2023-01-19T22:44:18.151Z,78.60
2023-01-19T22:46:44.654Z,78.17
2023-01-19T22:49:14.230Z,78.66
2023-01-19T22:51:40.776Z,78.74
2023-01-19T22:54:07.944Z,79.20
2023-01-19T22:56:36.895Z,79.46
2023-01-19T22:59:04.425Z,79.21
2023-01-19T23:01:37.545Z,79.56
2023-01-19T23:04:05.437Z,78.95
2023-01-19T23:06:35.138Z,79.15
2023-01-19T23:09:05.007Z,79.07
2023-01-19T23:11:37.327Z,79.45
2023-01-19T23:14:07.010Z,79.08
2023-01-19T23:16:34.375Z,79.33
2023-01-19T23:19:00.879Z,79.18
2023-01-19T23:21:30.173Z,79.93
2023-01-19T23:23:58.823Z,79.36
2023-01-19T23:26:25.760Z,79.44
2023-01-19T23:28:57.654Z,80.38
2023-01-19T23:31:25.529Z,80.44
2023-01-19T23:33:54.841Z,80.89
2023-01-19T23:36:23.024Z,80.68
2023-01-19T23:38:54.502Z,80.85
2023-01-19T23:41:22.212Z,81.40
2023-01-19T23:43:48.976Z,81.16
2023-01-19T23:46:16.854Z,80.84
2023-01-19T23:48:43.510Z,81.43
2023-01-19T23:51:22.647Z,82.37
2023-01-19T23:53:49.496Z,81.60
2023-01-19T23:56:23.041Z,82.59
2023-01-19T23:58:55.668Z,82.32
